Terminal Aerodrome Forecast
Issued by NWS Twin Cities, MN

Home | Current Version | Previous Version | Text Only | Print | Product List | Glossary On
Versions: 1 2 3 4 5 6 7 8 9 10 11 12 13 14 15 16 17 18 19 20 21 22 23 24 25 26
000
FTUS43 KMPX 080249 AAA
TAFMSP
TAF AMD
KMSP 080249Z 0803/0906 VRB04KT P6SM FEW050 SCT250
     FM080800 14005KT P6SM FEW050 SCT250
     FM081600 18007KT P6SM BKN050
     FM090000 20004KT P6SM FEW050 BKN250=

USA.gov is the U.S. government's official web portal to all federal, state and local government web resources and services.